sensor_id;sensor_type;location;lat;lon;timestamp;P1;durP1;ratioP1;P2;durP2;ratioP2
71038;SDS011;58692;43.212;27.908;2023-04-01T00:01:01;53.23;;;32.30;;
71038;SDS011;58692;43.212;27.908;2023-04-01T00:03:28;59.10;;;33.53;;
71038;SDS011;58692;43.212;27.908;2023-04-01T00:05:56;56.17;;;35.13;;
71038;SDS011;58692;43.212;27.908;2023-04-01T00:08:22;53.72;;;33.28;;
71038;SDS011;58692;43.212;27.908;2023-04-01T00:10:48;57.90;;;35.07;;
71038;SDS011;58692;43.212;27.908;2023-04-01T00:13:14;56.47;;;33.50;;
71038;SDS011;58692;43.212;27.908;2023-04-01T00:15:40;56.10;;;34.75;;
71038;SDS011;58692;43.212;27.908;2023-04-01T00:18:06;54.35;;;33.70;;
71038;SDS011;58692;43.212;27.908;2023-04-01T00:20:32;52.77;;;30.40;;
71038;SDS011;58692;43.212;27.908;2023-04-01T00:22:58;49.97;;;27.43;;
71038;SDS011;58692;43.212;27.908;2023-04-01T00:25:23;45.00;;;27.92;;
71038;SDS011;58692;43.212;27.908;2023-04-01T00:27:49;48.80;;;29.57;;
71038;SDS011;58692;43.212;27.908;2023-04-01T00:30:15;46.88;;;29.73;;
71038;SDS011;58692;43.212;27.908;2023-04-01T00:32:41;43.25;;;27.38;;
71038;SDS011;58692;43.212;27.908;2023-04-01T00:35:07;43.73;;;26.17;;
71038;SDS011;58692;43.212;27.908;2023-04-01T00:37:34;42.83;;;25.27;;
71038;SDS011;58692;43.212;27.908;2023-04-01T00:40:02;41.03;;;23.90;;
71038;SDS011;58692;43.212;27.908;2023-04-01T00:42:29;37.83;;;22.67;;
71038;SDS011;58692;43.212;27.908;2023-04-01T00:44:54;39.40;;;21.77;;
71038;SDS011;58692;43.212;27.908;2023-04-01T00:47:20;39.15;;;21.25;;
71038;SDS011;58692;43.212;27.908;2023-04-01T00:49:50;39.00;;;22.05;;
71038;SDS011;58692;43.212;27.908;2023-04-01T00:52:18;49.80;;;32.93;;
71038;SDS011;58692;43.212;27.908;2023-04-01T00:54:47;64.38;;;46.17;;
71038;SDS011;58692;43.212;27.908;2023-04-01T00:57:19;81.50;;;57.40;;
71038;SDS011;58692;43.212;27.908;2023-04-01T00:59:52;69.97;;;48.08;;
71038;SDS011;58692;43.212;27.908;2023-04-01T01:02:20;56.85;;;36.55;;
71038;SDS011;58692;43.212;27.908;2023-04-01T01:04:46;50.90;;;32.33;;
71038;SDS011;58692;43.212;27.908;2023-04-01T01:07:20;46.70;;;29.40;;
71038;SDS011;58692;43.212;27.908;2023-04-01T01:15:44;66.80;;;39.50;;
71038;SDS011;58692;43.212;27.908;2023-04-01T01:18:18;55.95;;;38.50;;
71038;SDS011;58692;43.212;27.908;2023-04-01T01:23:54;52.75;;;36.10;;
71038;SDS011;58692;43.212;27.908;2023-04-01T01:34:25;42.33;;;24.52;;
71038;SDS011;58692;43.212;27.908;2023-04-01T01:37:02;41.13;;;25.40;;
71038;SDS011;58692;43.212;27.908;2023-04-01T01:39:34;36.67;;;23.58;;
71038;SDS011;58692;43.212;27.908;2023-04-01T01:42:02;44.70;;;23.83;;
71038;SDS011;58692;43.212;27.908;2023-04-01T01:44:30;42.55;;;23.30;;
71038;SDS011;58692;43.212;27.908;2023-04-01T01:46:58;42.67;;;24.15;;
71038;SDS011;58692;43.212;27.908;2023-04-01T01:49:25;40.58;;;24.55;;
71038;SDS011;58692;43.212;27.908;2023-04-01T01:51:55;38.92;;;22.73;;
71038;SDS011;58692;43.212;27.908;2023-04-01T01:54:21;37.90;;;23.73;;
71038;SDS011;58692;43.212;27.908;2023-04-01T01:56:48;40.75;;;23.80;;
71038;SDS011;58692;43.212;27.908;2023-04-01T01:59:17;38.85;;;23.98;;
71038;SDS011;58692;43.212;27.908;2023-04-01T02:01:46;39.03;;;23.73;;
71038;SDS011;58692;43.212;27.908;2023-04-01T02:04:15;41.35;;;24.17;;
71038;SDS011;58692;43.212;27.908;2023-04-01T02:06:45;38.95;;;24.08;;
71038;SDS011;58692;43.212;27.908;2023-04-01T02:09:14;37.95;;;23.73;;
71038;SDS011;58692;43.212;27.908;2023-04-01T02:14:25;40.70;;;23.67;;
71038;SDS011;58692;43.212;27.908;2023-04-01T02:16:55;36.60;;;21.23;;
71038;SDS011;58692;43.212;27.908;2023-04-01T02:19:29;39.15;;;21.95;;
71038;SDS011;58692;43.212;27.908;2023-04-01T02:22:01;37.15;;;20.80;;
71038;SDS011;58692;43.212;27.908;2023-04-01T02:24:30;36.95;;;21.17;;
71038;SDS011;58692;43.212;27.908;2023-04-01T02:26:58;35.73;;;20.43;;
71038;SDS011;58692;43.212;27.908;2023-04-01T02:29:24;36.45;;;20.17;;
71038;SDS011;58692;43.212;27.908;2023-04-01T02:31:51;34.58;;;19.98;;
71038;SDS011;58692;43.212;27.908;2023-04-01T02:34:18;37.60;;;21.17;;
71038;SDS011;58692;43.212;27.908;2023-04-01T02:36:45;35.83;;;20.90;;
71038;SDS011;58692;43.212;27.908;2023-04-01T02:39:12;42.40;;;20.50;;
71038;SDS011;58692;43.212;27.908;2023-04-01T02:41:39;32.55;;;20.35;;
71038;SDS011;58692;43.212;27.908;2023-04-01T02:44:05;36.33;;;20.63;;
71038;SDS011;58692;43.212;27.908;2023-04-01T02:46:32;37.73;;;20.57;;
71038;SDS011;58692;43.212;27.908;2023-04-01T02:48:57;34.10;;;19.88;;
71038;SDS011;58692;43.212;27.908;2023-04-01T02:51:23;37.37;;;19.33;;
71038;SDS011;58692;43.212;27.908;2023-04-01T02:53:50;37.33;;;20.13;;
71038;SDS011;58692;43.212;27.908;2023-04-01T02:56:15;35.07;;;19.80;;
71038;SDS011;58692;43.212;27.908;2023-04-01T02:58:41;35.25;;;20.52;;
71038;SDS011;58692;43.212;27.908;2023-04-01T03:01:07;29.03;;;18.83;;
71038;SDS011;58692;43.212;27.908;2023-04-01T03:03:33;36.80;;;19.40;;
71038;SDS011;58692;43.212;27.908;2023-04-01T03:06:04;33.78;;;20.08;;
71038;SDS011;58692;43.212;27.908;2023-04-01T03:08:30;34.80;;;19.80;;
71038;SDS011;58692;43.212;27.908;2023-04-01T03:10:56;33.58;;;19.52;;
71038;SDS011;58692;43.212;27.908;2023-04-01T03:13:21;35.33;;;19.50;;
71038;SDS011;58692;43.212;27.908;2023-04-01T03:15:47;37.67;;;20.10;;
71038;SDS011;58692;43.212;27.908;2023-04-01T03:18:12;34.03;;;19.00;;
71038;SDS011;58692;43.212;27.908;2023-04-01T03:20:38;37.00;;;20.83;;
71038;SDS011;58692;43.212;27.908;2023-04-01T03:23:03;37.77;;;20.00;;
71038;SDS011;58692;43.212;27.908;2023-04-01T03:25:29;37.50;;;20.23;;
71038;SDS011;58692;43.212;27.908;2023-04-01T03:27:55;40.07;;;19.27;;
71038;SDS011;58692;43.212;27.908;2023-04-01T03:30:21;37.67;;;20.02;;
71038;SDS011;58692;43.212;27.908;2023-04-01T03:32:46;40.17;;;20.20;;
71038;SDS011;58692;43.212;27.908;2023-04-01T03:35:12;30.58;;;19.00;;
71038;SDS011;58692;43.212;27.908;2023-04-01T03:37:38;34.17;;;19.20;;
71038;SDS011;58692;43.212;27.908;2023-04-01T03:40:03;36.70;;;19.50;;
71038;SDS011;58692;43.212;27.908;2023-04-01T03:42:30;33.73;;;18.90;;
71038;SDS011;58692;43.212;27.908;2023-04-01T03:44:57;35.25;;;19.95;;
71038;SDS011;58692;43.212;27.908;2023-04-01T03:47:22;36.80;;;20.02;;
71038;SDS011;58692;43.212;27.908;2023-04-01T03:49:48;33.47;;;18.77;;
71038;SDS011;58692;43.212;27.908;2023-04-01T03:52:13;33.67;;;19.40;;
71038;SDS011;58692;43.212;27.908;2023-04-01T03:54:39;35.05;;;19.15;;
71038;SDS011;58692;43.212;27.908;2023-04-01T03:57:05;35.37;;;19.53;;
71038;SDS011;58692;43.212;27.908;2023-04-01T03:59:31;38.42;;;19.35;;
71038;SDS011;58692;43.212;27.908;2023-04-01T04:01:56;35.72;;;19.35;;
71038;SDS011;58692;43.212;27.908;2023-04-01T04:04:22;37.27;;;19.77;;
71038;SDS011;58692;43.212;27.908;2023-04-01T04:06:47;40.47;;;20.40;;
71038;SDS011;58692;43.212;27.908;2023-04-01T04:09:13;31.83;;;17.70;;
71038;SDS011;58692;43.212;27.908;2023-04-01T04:11:39;35.13;;;18.23;;
71038;SDS011;58692;43.212;27.908;2023-04-01T04:14:04;32.13;;;17.83;;
71038;SDS011;58692;43.212;27.908;2023-04-01T04:16:30;31.33;;;16.90;;
71038;SDS011;58692;43.212;27.908;2023-04-01T04:18:55;28.27;;;17.03;;
71038;SDS011;58692;43.212;27.908;2023-04-01T04:21:21;35.05;;;18.35;;
71038;SDS011;58692;43.212;27.908;2023-04-01T04:23:47;28.17;;;15.97;;
71038;SDS011;58692;43.212;27.908;2023-04-01T04:26:13;27.55;;;17.42;;
71038;SDS011;58692;43.212;27.908;2023-04-01T04:28:40;26.92;;;15.65;;
71038;SDS011;58692;43.212;27.908;2023-04-01T04:31:06;32.30;;;16.70;;
71038;SDS011;58692;43.212;27.908;2023-04-01T04:33:32;33.60;;;16.98;;
71038;SDS011;58692;43.212;27.908;2023-04-01T04:35:59;25.27;;;14.57;;
71038;SDS011;58692;43.212;27.908;2023-04-01T04:38:25;26.40;;;15.18;;
71038;SDS011;58692;43.212;27.908;2023-04-01T04:40:51;34.40;;;14.33;;
71038;SDS011;58692;43.212;27.908;2023-04-01T04:43:17;27.73;;;13.85;;
71038;SDS011;58692;43.212;27.908;2023-04-01T04:45:44;27.70;;;14.30;;
71038;SDS011;58692;43.212;27.908;2023-04-01T04:48:11;22.40;;;13.73;;
71038;SDS011;58692;43.212;27.908;2023-04-01T04:50:41;29.77;;;13.75;;
71038;SDS011;58692;43.212;27.908;2023-04-01T04:53:09;26.70;;;13.50;;
71038;SDS011;58692;43.212;27.908;2023-04-01T04:55:35;28.60;;;14.35;;
71038;SDS011;58692;43.212;27.908;2023-04-01T04:58:00;35.13;;;14.13;;
71038;SDS011;58692;43.212;27.908;2023-04-01T05:00:26;23.30;;;11.60;;
71038;SDS011;58692;43.212;27.908;2023-04-01T05:02:52;20.98;;;11.40;;
71038;SDS011;58692;43.212;27.908;2023-04-01T05:05:17;18.33;;;11.50;;
71038;SDS011;58692;43.212;27.908;2023-04-01T05:07:43;21.92;;;11.38;;
71038;SDS011;58692;43.212;27.908;2023-04-01T05:10:09;29.23;;;12.23;;
71038;SDS011;58692;43.212;27.908;2023-04-01T05:12:35;23.40;;;12.45;;
71038;SDS011;58692;43.212;27.908;2023-04-01T05:16:14;28.88;;;12.23;;
71038;SDS011;58692;43.212;27.908;2023-04-01T05:18:42;22.13;;;11.60;;
71038;SDS011;58692;43.212;27.908;2023-04-01T05:21:08;23.07;;;12.20;;
71038;SDS011;58692;43.212;27.908;2023-04-01T05:23:35;27.98;;;12.77;;
71038;SDS011;58692;43.212;27.908;2023-04-01T05:26:05;23.15;;;11.40;;
71038;SDS011;58692;43.212;27.908;2023-04-01T05:28:32;24.47;;;12.63;;
71038;SDS011;58692;43.212;27.908;2023-04-01T05:30:59;28.10;;;12.02;;
71038;SDS011;58692;43.212;27.908;2023-04-01T05:33:26;25.83;;;12.05;;
71038;SDS011;58692;43.212;27.908;2023-04-01T05:35:52;28.53;;;11.57;;
71038;SDS011;58692;43.212;27.908;2023-04-01T05:38:18;32.33;;;14.18;;
71038;SDS011;58692;43.212;27.908;2023-04-01T05:40:43;30.90;;;13.70;;
71038;SDS011;58692;43.212;27.908;2023-04-01T05:43:09;26.80;;;12.73;;
71038;SDS011;58692;43.212;27.908;2023-04-01T05:45:35;31.40;;;12.27;;
71038;SDS011;58692;43.212;27.908;2023-04-01T05:48:00;44.63;;;18.10;;
71038;SDS011;58692;43.212;27.908;2023-04-01T05:50:26;37.95;;;20.30;;
71038;SDS011;58692;43.212;27.908;2023-04-01T05:52:52;45.33;;;21.83;;
71038;SDS011;58692;43.212;27.908;2023-04-01T05:55:18;49.03;;;20.98;;
71038;SDS011;58692;43.212;27.908;2023-04-01T05:57:44;37.57;;;18.63;;
71038;SDS011;58692;43.212;27.908;2023-04-01T06:00:11;26.65;;;13.20;;
71038;SDS011;58692;43.212;27.908;2023-04-01T06:02:37;27.75;;;11.90;;
71038;SDS011;58692;43.212;27.908;2023-04-01T06:05:10;28.48;;;11.48;;
71038;SDS011;58692;43.212;27.908;2023-04-01T06:07:40;25.33;;;10.85;;
71038;SDS011;58692;43.212;27.908;2023-04-01T06:12:56;18.23;;;8.18;;
71038;SDS011;58692;43.212;27.908;2023-04-01T06:29:26;17.23;;;7.70;;
71038;SDS011;58692;43.212;27.908;2023-04-01T06:34:56;15.65;;;7.93;;
71038;SDS011;58692;43.212;27.908;2023-04-01T06:56:37;14.88;;;5.60;;
71038;SDS011;58692;43.212;27.908;2023-04-01T06:59:10;13.68;;;4.93;;
71038;SDS011;58692;43.212;27.908;2023-04-01T07:01:42;13.82;;;5.20;;
71038;SDS011;58692;43.212;27.908;2023-04-01T07:04:30;13.70;;;5.30;;
71038;SDS011;58692;43.212;27.908;2023-04-01T07:07:03;11.85;;;5.30;;
71038;SDS011;58692;43.212;27.908;2023-04-01T07:09:31;12.07;;;5.15;;
71038;SDS011;58692;43.212;27.908;2023-04-01T07:12:02;9.70;;;4.70;;
71038;SDS011;58692;43.212;27.908;2023-04-01T07:14:36;16.08;;;5.47;;
71038;SDS011;58692;43.212;27.908;2023-04-01T07:25:05;13.00;;;5.00;;
71038;SDS011;58692;43.212;27.908;2023-04-01T07:27:38;10.93;;;4.90;;
71038;SDS011;58692;43.212;27.908;2023-04-01T07:30:06;11.77;;;4.70;;
71038;SDS011;58692;43.212;27.908;2023-04-01T07:35:45;11.68;;;4.50;;
71038;SDS011;58692;43.212;27.908;2023-04-01T07:51:43;10.23;;;5.03;;
71038;SDS011;58692;43.212;27.908;2023-04-01T07:57:08;14.30;;;5.10;;
71038;SDS011;58692;43.212;27.908;2023-04-01T07:59:40;13.52;;;4.90;;
71038;SDS011;58692;43.212;27.908;2023-04-01T08:10:34;12.18;;;4.72;;
71038;SDS011;58692;43.212;27.908;2023-04-01T08:19:03;12.70;;;4.83;;
71038;SDS011;58692;43.212;27.908;2023-04-01T08:21:47;10.10;;;5.07;;
71038;SDS011;58692;43.212;27.908;2023-04-01T08:27:01;13.65;;;4.90;;
71038;SDS011;58692;43.212;27.908;2023-04-01T08:29:37;12.15;;;4.80;;
71038;SDS011;58692;43.212;27.908;2023-04-01T08:32:09;10.80;;;4.50;;
71038;SDS011;58692;43.212;27.908;2023-04-01T08:34:38;12.00;;;5.10;;
71038;SDS011;58692;43.212;27.908;2023-04-01T08:39:39;9.50;;;4.63;;
71038;SDS011;58692;43.212;27.908;2023-04-01T08:50:09;14.07;;;4.90;;
71038;SDS011;58692;43.212;27.908;2023-04-01T08:53:03;10.10;;;4.25;;
71038;SDS011;58692;43.212;27.908;2023-04-01T08:55:40;12.35;;;4.40;;
71038;SDS011;58692;43.212;27.908;2023-04-01T09:01:19;9.35;;;4.28;;
71038;SDS011;58692;43.212;27.908;2023-04-01T09:03:56;10.13;;;3.93;;
71038;SDS011;58692;43.212;27.908;2023-04-01T09:07:20;11.82;;;4.57;;
71038;SDS011;58692;43.212;27.908;2023-04-01T09:12:35;19.77;;;5.25;;
71038;SDS011;58692;43.212;27.908;2023-04-01T09:36:50;14.15;;;4.80;;
71038;SDS011;58692;43.212;27.908;2023-04-01T09:39:30;15.57;;;5.07;;
71038;SDS011;58692;43.212;27.908;2023-04-01T09:44:46;16.77;;;5.20;;
71038;SDS011;58692;43.212;27.908;2023-04-01T10:12:04;15.13;;;5.73;;
71038;SDS011;58692;43.212;27.908;2023-04-01T10:18:04;14.90;;;5.60;;
71038;SDS011;58692;43.212;27.908;2023-04-01T10:20:54;16.23;;;5.68;;
71038;SDS011;58692;43.212;27.908;2023-04-01T10:23:52;18.58;;;5.55;;
71038;SDS011;58692;43.212;27.908;2023-04-01T10:29:23;14.88;;;5.18;;
71038;SDS011;58692;43.212;27.908;2023-04-01T10:37:39;16.98;;;5.97;;
71038;SDS011;58692;43.212;27.908;2023-04-01T10:49:19;15.07;;;5.53;;
71038;SDS011;58692;43.212;27.908;2023-04-01T11:03:14;12.82;;;5.75;;
71038;SDS011;58692;43.212;27.908;2023-04-01T11:06:15;12.63;;;6.05;;
71038;SDS011;58692;43.212;27.908;2023-04-01T11:08:53;14.80;;;5.87;;
71038;SDS011;58692;43.212;27.908;2023-04-01T11:15:06;11.45;;;5.68;;
71038;SDS011;58692;43.212;27.908;2023-04-01T11:25:47;17.00;;;6.40;;
71038;SDS011;58692;43.212;27.908;2023-04-01T11:28:40;18.42;;;5.93;;
71038;SDS011;58692;43.212;27.908;2023-04-01T11:31:32;14.77;;;5.82;;
71038;SDS011;58692;43.212;27.908;2023-04-01T11:34:09;17.40;;;6.30;;
71038;SDS011;58692;43.212;27.908;2023-04-01T11:39:20;17.80;;;6.45;;
71038;SDS011;58692;43.212;27.908;2023-04-01T11:44:32;14.93;;;5.88;;
71038;SDS011;58692;43.212;27.908;2023-04-01T11:47:10;13.15;;;5.97;;
71038;SDS011;58692;43.212;27.908;2023-04-01T11:57:42;13.65;;;5.47;;
71038;SDS011;58692;43.212;27.908;2023-04-01T12:00:22;10.30;;;5.28;;
71038;SDS011;58692;43.212;27.908;2023-04-01T12:10:55;11.18;;;5.00;;
71038;SDS011;58692;43.212;27.908;2023-04-01T12:13:30;16.80;;;5.53;;
71038;SDS011;58692;43.212;27.908;2023-04-01T12:16:42;11.80;;;4.57;;
71038;SDS011;58692;43.212;27.908;2023-04-01T12:32:25;12.25;;;5.75;;
71038;SDS011;58692;43.212;27.908;2023-04-01T12:59:10;19.27;;;6.60;;
71038;SDS011;58692;43.212;27.908;2023-04-01T13:08:29;14.75;;;7.90;;
71038;SDS011;58692;43.212;27.908;2023-04-01T13:10:55;17.23;;;7.03;;
71038;SDS011;58692;43.212;27.908;2023-04-01T13:27:41;15.02;;;6.70;;
71038;SDS011;58692;43.212;27.908;2023-04-01T13:30:18;17.55;;;6.78;;
71038;SDS011;58692;43.212;27.908;2023-04-01T13:33:01;15.98;;;7.00;;
71038;SDS011;58692;43.212;27.908;2023-04-01T13:35:45;19.42;;;6.55;;
71038;SDS011;58692;43.212;27.908;2023-04-01T13:44:02;19.50;;;7.50;;
71038;SDS011;58692;43.212;27.908;2023-04-01T13:46:42;11.40;;;6.13;;
71038;SDS011;58692;43.212;27.908;2023-04-01T13:50:04;14.68;;;6.53;;
71038;SDS011;58692;43.212;27.908;2023-04-01T13:55:35;13.68;;;6.95;;
71038;SDS011;58692;43.212;27.908;2023-04-01T13:58:15;19.90;;;6.23;;
71038;SDS011;58692;43.212;27.908;2023-04-01T14:05:50;11.48;;;5.28;;
71038;SDS011;58692;43.212;27.908;2023-04-01T14:08:36;10.95;;;5.13;;
71038;SDS011;58692;43.212;27.908;2023-04-01T14:11:17;13.25;;;4.95;;
71038;SDS011;58692;43.212;27.908;2023-04-01T14:22:24;19.08;;;5.28;;
71038;SDS011;58692;43.212;27.908;2023-04-01T14:25:06;17.55;;;5.20;;
71038;SDS011;58692;43.212;27.908;2023-04-01T14:35:56;12.77;;;5.22;;
71038;SDS011;58692;43.212;27.908;2023-04-01T14:38:35;16.33;;;5.75;;
71038;SDS011;58692;43.212;27.908;2023-04-01T14:41:29;14.90;;;5.97;;
71038;SDS011;58692;43.212;27.908;2023-04-01T14:49:34;13.50;;;5.43;;
71038;SDS011;58692;43.212;27.908;2023-04-01T14:52:04;14.40;;;5.78;;
71038;SDS011;58692;43.212;27.908;2023-04-01T14:54:36;15.05;;;5.82;;
71038;SDS011;58692;43.212;27.908;2023-04-01T15:00:00;16.77;;;5.57;;
71038;SDS011;58692;43.212;27.908;2023-04-01T15:02:47;14.65;;;6.00;;
71038;SDS011;58692;43.212;27.908;2023-04-01T15:08:09;18.65;;;5.60;;
71038;SDS011;58692;43.212;27.908;2023-04-01T15:13:54;14.23;;;5.75;;
71038;SDS011;58692;43.212;27.908;2023-04-01T15:21:56;16.47;;;5.30;;
71038;SDS011;58692;43.212;27.908;2023-04-01T15:40:46;12.17;;;5.43;;
71038;SDS011;58692;43.212;27.908;2023-04-01T15:45:58;14.23;;;5.32;;
71038;SDS011;58692;43.212;27.908;2023-04-01T15:48:55;19.17;;;5.90;;
71038;SDS011;58692;43.212;27.908;2023-04-01T15:51:38;13.27;;;5.40;;
71038;SDS011;58692;43.212;27.908;2023-04-01T16:11:40;21.92;;;7.40;;
71038;SDS011;58692;43.212;27.908;2023-04-01T16:17:12;20.00;;;7.35;;
71038;SDS011;58692;43.212;27.908;2023-04-01T16:28:32;16.52;;;5.95;;
71038;SDS011;58692;43.212;27.908;2023-04-01T16:34:02;19.10;;;6.83;;
71038;SDS011;58692;43.212;27.908;2023-04-01T16:36:41;17.27;;;7.10;;
71038;SDS011;58692;43.212;27.908;2023-04-01T16:45:19;19.35;;;8.20;;
71038;SDS011;58692;43.212;27.908;2023-04-01T16:47:40;18.00;;;7.20;;
71038;SDS011;58692;43.212;27.908;2023-04-01T16:58:18;17.05;;;6.40;;
71038;SDS011;58692;43.212;27.908;2023-04-01T17:00:50;21.80;;;7.10;;
71038;SDS011;58692;43.212;27.908;2023-04-01T17:06:00;16.58;;;8.02;;
71038;SDS011;58692;43.212;27.908;2023-04-01T17:08:39;15.75;;;6.60;;
71038;SDS011;58692;43.212;27.908;2023-04-01T17:11:11;18.25;;;6.65;;
71038;SDS011;58692;43.212;27.908;2023-04-01T17:13:50;18.27;;;6.73;;
71038;SDS011;58692;43.212;27.908;2023-04-01T17:19:09;17.55;;;7.25;;
71038;SDS011;58692;43.212;27.908;2023-04-01T17:24:34;19.80;;;7.40;;
71038;SDS011;58692;43.212;27.908;2023-04-01T17:27:08;16.23;;;6.07;;
71038;SDS011;58692;43.212;27.908;2023-04-01T17:30:09;17.58;;;7.07;;
71038;SDS011;58692;43.212;27.908;2023-04-01T17:41:42;17.83;;;7.03;;
71038;SDS011;58692;43.212;27.908;2023-04-01T17:46:51;20.08;;;7.20;;
71038;SDS011;58692;43.212;27.908;2023-04-01T17:49:37;19.87;;;7.87;;
71038;SDS011;58692;43.212;27.908;2023-04-01T17:52:16;17.88;;;6.22;;
71038;SDS011;58692;43.212;27.908;2023-04-01T17:55:17;18.42;;;6.68;;
71038;SDS011;58692;43.212;27.908;2023-04-01T17:57:52;16.83;;;6.90;;
71038;SDS011;58692;43.212;27.908;2023-04-01T18:00:29;17.98;;;7.38;;
71038;SDS011;58692;43.212;27.908;2023-04-01T18:03:20;18.53;;;6.97;;
71038;SDS011;58692;43.212;27.908;2023-04-01T18:08:55;14.95;;;6.38;;
71038;SDS011;58692;43.212;27.908;2023-04-01T18:19:28;21.55;;;7.68;;
71038;SDS011;58692;43.212;27.908;2023-04-01T18:27:28;16.00;;;6.47;;
71038;SDS011;58692;43.212;27.908;2023-04-01T18:32:44;16.40;;;5.75;;
71038;SDS011;58692;43.212;27.908;2023-04-01T18:38:16;19.05;;;6.50;;
71038;SDS011;58692;43.212;27.908;2023-04-01T18:41:07;16.65;;;6.57;;
71038;SDS011;58692;43.212;27.908;2023-04-01T18:56:37;19.63;;;8.57;;
71038;SDS011;58692;43.212;27.908;2023-04-01T19:01:39;12.82;;;7.32;;
71038;SDS011;58692;43.212;27.908;2023-04-01T19:06:57;9.02;;;3.70;;
71038;SDS011;58692;43.212;27.908;2023-04-01T19:09:43;9.87;;;4.03;;
71038;SDS011;58692;43.212;27.908;2023-04-01T19:25:43;11.23;;;5.70;;
71038;SDS011;58692;43.212;27.908;2023-04-01T19:37:02;15.60;;;9.27;;
71038;SDS011;58692;43.212;27.908;2023-04-01T19:39:58;17.00;;;11.45;;
71038;SDS011;58692;43.212;27.908;2023-04-01T20:01:19;12.10;;;6.00;;
71038;SDS011;58692;43.212;27.908;2023-04-01T20:03:51;12.73;;;5.95;;
71038;SDS011;58692;43.212;27.908;2023-04-01T20:06:27;10.25;;;5.65;;
71038;SDS011;58692;43.212;27.908;2023-04-01T20:11:46;11.68;;;5.45;;
71038;SDS011;58692;43.212;27.908;2023-04-01T20:14:40;11.43;;;5.80;;
71038;SDS011;58692;43.212;27.908;2023-04-01T20:19:34;15.90;;;5.72;;
71038;SDS011;58692;43.212;27.908;2023-04-01T20:23:19;9.90;;;4.85;;
71038;SDS011;58692;43.212;27.908;2023-04-01T20:25:05;9.27;;;3.97;;
71038;SDS011;58692;43.212;27.908;2023-04-01T20:28:01;7.50;;;3.73;;
71038;SDS011;58692;43.212;27.908;2023-04-01T20:30:53;10.38;;;3.72;;
71038;SDS011;58692;43.212;27.908;2023-04-01T20:36:18;9.13;;;3.60;;
71038;SDS011;58692;43.212;27.908;2023-04-01T20:39:31;7.88;;;3.10;;
71038;SDS011;58692;43.212;27.908;2023-04-01T20:41:53;7.57;;;3.73;;
71038;SDS011;58692;43.212;27.908;2023-04-01T20:53:01;10.90;;;5.00;;
71038;SDS011;58692;43.212;27.908;2023-04-01T20:58:24;10.52;;;4.43;;
71038;SDS011;58692;43.212;27.908;2023-04-01T21:04:07;8.10;;;4.00;;
71038;SDS011;58692;43.212;27.908;2023-04-01T21:06:53;8.10;;;4.20;;
71038;SDS011;58692;43.212;27.908;2023-04-01T21:12:37;7.70;;;3.72;;
71038;SDS011;58692;43.212;27.908;2023-04-01T21:23:36;23.40;;;12.80;;
71038;SDS011;58692;43.212;27.908;2023-04-01T21:29:27;23.45;;;13.52;;
71038;SDS011;58692;43.212;27.908;2023-04-01T21:34:57;19.73;;;11.45;;
71038;SDS011;58692;43.212;27.908;2023-04-01T21:42:23;22.55;;;11.85;;
71038;SDS011;58692;43.212;27.908;2023-04-01T21:56:17;15.80;;;8.98;;
71038;SDS011;58692;43.212;27.908;2023-04-01T22:09:37;18.00;;;10.43;;
71038;SDS011;58692;43.212;27.908;2023-04-01T22:12:09;18.67;;;10.50;;
71038;SDS011;58692;43.212;27.908;2023-04-01T22:14:46;17.15;;;9.63;;
71038;SDS011;58692;43.212;27.908;2023-04-01T22:17:32;15.32;;;9.48;;
71038;SDS011;58692;43.212;27.908;2023-04-01T22:20:13;17.77;;;9.63;;
71038;SDS011;58692;43.212;27.908;2023-04-01T22:25:16;16.67;;;9.80;;
71038;SDS011;58692;43.212;27.908;2023-04-01T22:27:55;17.53;;;9.90;;
71038;SDS011;58692;43.212;27.908;2023-04-01T22:30:29;17.65;;;10.70;;
71038;SDS011;58692;43.212;27.908;2023-04-01T22:33:11;19.10;;;10.02;;
71038;SDS011;58692;43.212;27.908;2023-04-01T22:44:13;20.58;;;10.85;;
71038;SDS011;58692;43.212;27.908;2023-04-01T22:49:56;18.65;;;10.95;;
71038;SDS011;58692;43.212;27.908;2023-04-01T22:52:58;21.45;;;11.27;;
71038;SDS011;58692;43.212;27.908;2023-04-01T22:55:13;18.80;;;10.80;;
71038;SDS011;58692;43.212;27.908;2023-04-01T22:57:45;20.20;;;11.07;;
71038;SDS011;58692;43.212;27.908;2023-04-01T23:00:18;18.27;;;10.20;;
71038;SDS011;58692;43.212;27.908;2023-04-01T23:05:31;17.83;;;9.80;;
71038;SDS011;58692;43.212;27.908;2023-04-01T23:08:07;19.57;;;10.40;;
71038;SDS011;58692;43.212;27.908;2023-04-01T23:11:06;18.58;;;9.70;;
71038;SDS011;58692;43.212;27.908;2023-04-01T23:13:36;15.23;;;8.45;;
71038;SDS011;58692;43.212;27.908;2023-04-01T23:16:04;12.23;;;6.43;;
71038;SDS011;58692;43.212;27.908;2023-04-01T23:18:37;8.82;;;4.65;;
71038;SDS011;58692;43.212;27.908;2023-04-01T23:24:00;9.15;;;4.38;;
71038;SDS011;58692;43.212;27.908;2023-04-01T23:26:39;6.97;;;3.53;;
71038;SDS011;58692;43.212;27.908;2023-04-01T23:29:21;8.02;;;3.30;;
71038;SDS011;58692;43.212;27.908;2023-04-01T23:31:49;7.20;;;3.40;;
71038;SDS011;58692;43.212;27.908;2023-04-01T23:34:25;6.27;;;3.10;;
71038;SDS011;58692;43.212;27.908;2023-04-01T23:36:53;5.75;;;2.65;;
71038;SDS011;58692;43.212;27.908;2023-04-01T23:41:51;4.38;;;2.10;;
71038;SDS011;58692;43.212;27.908;2023-04-01T23:44:19;6.97;;;2.30;;
71038;SDS011;58692;43.212;27.908;2023-04-01T23:46:46;4.00;;;1.67;;
71038;SDS011;58692;43.212;27.908;2023-04-01T23:49:16;3.17;;;1.60;;
71038;SDS011;58692;43.212;27.908;2023-04-01T23:51:49;3.10;;;1.35;;
71038;SDS011;58692;43.212;27.908;2023-04-01T23:54:34;2.58;;;1.33;;
71038;SDS011;58692;43.212;27.908;2023-04-01T23:57:11;2.30;;;1.00;;
71038;SDS011;58692;43.212;27.908;2023-04-01T23:59:39;1.45;;;1.00;;
